sensor_id;sensor_type;location;lat;lon;timestamp;P1;durP1;ratioP1;P2;durP2;ratioP2
34767;SDS011;21755;43.608;1.236;2024-03-25T00:00:28;4.38;;;2.22;;
34767;SDS011;21755;43.608;1.236;2024-03-25T00:02:54;7.70;;;2.40;;
34767;SDS011;21755;43.608;1.236;2024-03-25T00:05:20;6.53;;;2.65;;
34767;SDS011;21755;43.608;1.236;2024-03-25T00:07:53;8.73;;;2.92;;
34767;SDS011;21755;43.608;1.236;2024-03-25T00:10:19;8.45;;;3.55;;
34767;SDS011;21755;43.608;1.236;2024-03-25T00:12:46;8.90;;;3.90;;
34767;SDS011;21755;43.608;1.236;2024-03-25T00:15:12;6.97;;;3.78;;
34767;SDS011;21755;43.608;1.236;2024-03-25T00:17:38;7.00;;;3.88;;
34767;SDS011;21755;43.608;1.236;2024-03-25T00:20:05;6.80;;;3.92;;
34767;SDS011;21755;43.608;1.236;2024-03-25T00:22:34;7.65;;;4.18;;
34767;SDS011;21755;43.608;1.236;2024-03-25T00:25:00;9.18;;;4.45;;
34767;SDS011;21755;43.608;1.236;2024-03-25T00:27:26;8.48;;;4.22;;
34767;SDS011;21755;43.608;1.236;2024-03-25T00:29:53;10.13;;;3.78;;
34767;SDS011;21755;43.608;1.236;2024-03-25T00:32:18;8.80;;;3.58;;
34767;SDS011;21755;43.608;1.236;2024-03-25T00:34:44;6.50;;;3.17;;
34767;SDS011;21755;43.608;1.236;2024-03-25T00:37:10;7.82;;;3.05;;
34767;SDS011;21755;43.608;1.236;2024-03-25T00:39:36;4.55;;;2.28;;
34767;SDS011;21755;43.608;1.236;2024-03-25T00:42:02;7.50;;;2.58;;
34767;SDS011;21755;43.608;1.236;2024-03-25T00:44:28;7.13;;;2.20;;
34767;SDS011;21755;43.608;1.236;2024-03-25T00:46:54;5.80;;;2.70;;
34767;SDS011;21755;43.608;1.236;2024-03-25T00:49:20;8.77;;;3.10;;
34767;SDS011;21755;43.608;1.236;2024-03-25T00:51:49;7.82;;;3.30;;
34767;SDS011;21755;43.608;1.236;2024-03-25T00:54:14;5.72;;;3.47;;
34767;SDS011;21755;43.608;1.236;2024-03-25T00:56:40;4.75;;;2.92;;
34767;SDS011;21755;43.608;1.236;2024-03-25T00:59:06;6.03;;;3.45;;
34767;SDS011;21755;43.608;1.236;2024-03-25T01:01:32;8.40;;;4.20;;
34767;SDS011;21755;43.608;1.236;2024-03-25T01:04:00;10.77;;;3.83;;
34767;SDS011;21755;43.608;1.236;2024-03-25T01:06:27;7.93;;;3.88;;
34767;SDS011;21755;43.608;1.236;2024-03-25T01:08:53;9.23;;;3.88;;
34767;SDS011;21755;43.608;1.236;2024-03-25T01:11:19;7.35;;;4.35;;
34767;SDS011;21755;43.608;1.236;2024-03-25T01:13:44;8.85;;;3.63;;
34767;SDS011;21755;43.608;1.236;2024-03-25T01:16:11;7.88;;;4.47;;
34767;SDS011;21755;43.608;1.236;2024-03-25T01:18:37;6.65;;;3.75;;
34767;SDS011;21755;43.608;1.236;2024-03-25T01:21:03;7.53;;;4.40;;
34767;SDS011;21755;43.608;1.236;2024-03-25T01:23:30;6.47;;;4.13;;
34767;SDS011;21755;43.608;1.236;2024-03-25T01:25:56;6.78;;;4.10;;
34767;SDS011;21755;43.608;1.236;2024-03-25T01:28:21;8.80;;;4.15;;
34767;SDS011;21755;43.608;1.236;2024-03-25T01:30:47;4.97;;;3.28;;
34767;SDS011;21755;43.608;1.236;2024-03-25T01:33:14;9.38;;;3.70;;
34767;SDS011;21755;43.608;1.236;2024-03-25T01:35:40;5.07;;;3.05;;
34767;SDS011;21755;43.608;1.236;2024-03-25T01:40:35;4.60;;;2.72;;
34767;SDS011;21755;43.608;1.236;2024-03-25T01:43:02;3.95;;;2.40;;
34767;SDS011;21755;43.608;1.236;2024-03-25T01:45:29;3.72;;;2.30;;
34767;SDS011;21755;43.608;1.236;2024-03-25T01:47:59;4.45;;;2.67;;
34767;SDS011;21755;43.608;1.236;2024-03-25T01:50:33;4.53;;;2.30;;
34767;SDS011;21755;43.608;1.236;2024-03-25T01:53:01;5.30;;;2.40;;
34767;SDS011;21755;43.608;1.236;2024-03-25T01:55:28;3.70;;;2.30;;
34767;SDS011;21755;43.608;1.236;2024-03-25T01:57:56;4.80;;;2.53;;
34767;SDS011;21755;43.608;1.236;2024-03-25T02:00:22;4.68;;;2.38;;
34767;SDS011;21755;43.608;1.236;2024-03-25T02:02:50;4.25;;;2.20;;
34767;SDS011;21755;43.608;1.236;2024-03-25T02:05:17;6.18;;;2.28;;
34767;SDS011;21755;43.608;1.236;2024-03-25T02:07:44;8.60;;;2.55;;
34767;SDS011;21755;43.608;1.236;2024-03-25T02:10:10;5.18;;;2.95;;
34767;SDS011;21755;43.608;1.236;2024-03-25T02:12:42;5.40;;;2.25;;
34767;SDS011;21755;43.608;1.236;2024-03-25T02:15:09;6.50;;;2.30;;
34767;SDS011;21755;43.608;1.236;2024-03-25T02:17:36;3.88;;;2.00;;
34767;SDS011;21755;43.608;1.236;2024-03-25T02:20:02;4.35;;;2.00;;
34767;SDS011;21755;43.608;1.236;2024-03-25T02:22:30;3.45;;;2.08;;
34767;SDS011;21755;43.608;1.236;2024-03-25T02:24:57;6.20;;;2.45;;
34767;SDS011;21755;43.608;1.236;2024-03-25T02:27:25;4.50;;;2.25;;
34767;SDS011;21755;43.608;1.236;2024-03-25T02:29:53;3.30;;;1.90;;
34767;SDS011;21755;43.608;1.236;2024-03-25T02:32:20;7.30;;;2.42;;
34767;SDS011;21755;43.608;1.236;2024-03-25T02:34:50;4.28;;;2.47;;
34767;SDS011;21755;43.608;1.236;2024-03-25T02:37:16;4.10;;;2.47;;
34767;SDS011;21755;43.608;1.236;2024-03-25T02:39:43;5.93;;;2.65;;
34767;SDS011;21755;43.608;1.236;2024-03-25T02:42:10;5.07;;;3.40;;
34767;SDS011;21755;43.608;1.236;2024-03-25T02:44:36;6.50;;;2.97;;
34767;SDS011;21755;43.608;1.236;2024-03-25T02:47:02;4.70;;;2.83;;
34767;SDS011;21755;43.608;1.236;2024-03-25T02:49:29;5.05;;;2.50;;
34767;SDS011;21755;43.608;1.236;2024-03-25T02:51:55;4.32;;;2.55;;
34767;SDS011;21755;43.608;1.236;2024-03-25T02:54:21;6.55;;;3.00;;
34767;SDS011;21755;43.608;1.236;2024-03-25T02:56:47;5.60;;;2.90;;
34767;SDS011;21755;43.608;1.236;2024-03-25T02:59:13;5.75;;;2.95;;
34767;SDS011;21755;43.608;1.236;2024-03-25T03:01:38;7.80;;;3.30;;
34767;SDS011;21755;43.608;1.236;2024-03-25T03:04:04;6.07;;;3.03;;
34767;SDS011;21755;43.608;1.236;2024-03-25T03:06:30;8.70;;;4.10;;
34767;SDS011;21755;43.608;1.236;2024-03-25T03:08:56;6.38;;;3.80;;
34767;SDS011;21755;43.608;1.236;2024-03-25T03:11:22;9.77;;;4.10;;
34767;SDS011;21755;43.608;1.236;2024-03-25T03:13:48;8.75;;;3.55;;
34767;SDS011;21755;43.608;1.236;2024-03-25T03:16:14;8.75;;;4.68;;
34767;SDS011;21755;43.608;1.236;2024-03-25T03:18:39;6.72;;;4.32;;
34767;SDS011;21755;43.608;1.236;2024-03-25T03:21:05;10.77;;;4.18;;
34767;SDS011;21755;43.608;1.236;2024-03-25T03:23:31;8.90;;;4.45;;
34767;SDS011;21755;43.608;1.236;2024-03-25T03:25:57;8.40;;;4.47;;
34767;SDS011;21755;43.608;1.236;2024-03-25T03:28:25;8.95;;;4.30;;
34767;SDS011;21755;43.608;1.236;2024-03-25T03:30:50;8.70;;;4.13;;
34767;SDS011;21755;43.608;1.236;2024-03-25T03:33:16;10.18;;;3.85;;
34767;SDS011;21755;43.608;1.236;2024-03-25T03:35:42;6.22;;;3.67;;
34767;SDS011;21755;43.608;1.236;2024-03-25T03:38:08;9.02;;;4.43;;
34767;SDS011;21755;43.608;1.236;2024-03-25T03:40:34;10.13;;;3.88;;
34767;SDS011;21755;43.608;1.236;2024-03-25T03:43:00;8.25;;;3.60;;
34767;SDS011;21755;43.608;1.236;2024-03-25T03:45:26;12.23;;;4.38;;
34767;SDS011;21755;43.608;1.236;2024-03-25T03:47:52;7.90;;;4.30;;
34767;SDS011;21755;43.608;1.236;2024-03-25T03:50:18;8.20;;;4.50;;
34767;SDS011;21755;43.608;1.236;2024-03-25T03:52:43;8.25;;;4.60;;
34767;SDS011;21755;43.608;1.236;2024-03-25T03:55:09;11.77;;;4.40;;
34767;SDS011;21755;43.608;1.236;2024-03-25T03:57:35;10.75;;;4.93;;
34767;SDS011;21755;43.608;1.236;2024-03-25T04:00:01;12.00;;;5.30;;
34767;SDS011;21755;43.608;1.236;2024-03-25T04:02:28;11.13;;;5.88;;
34767;SDS011;21755;43.608;1.236;2024-03-25T04:04:54;15.18;;;5.90;;
34767;SDS011;21755;43.608;1.236;2024-03-25T04:07:20;11.35;;;5.93;;
34767;SDS011;21755;43.608;1.236;2024-03-25T04:09:51;11.60;;;6.25;;
34767;SDS011;21755;43.608;1.236;2024-03-25T04:12:22;16.50;;;6.93;;
34767;SDS011;21755;43.608;1.236;2024-03-25T04:14:48;16.52;;;6.97;;
34767;SDS011;21755;43.608;1.236;2024-03-25T04:17:19;13.80;;;6.80;;
34767;SDS011;21755;43.608;1.236;2024-03-25T04:19:46;16.77;;;6.97;;
34767;SDS011;21755;43.608;1.236;2024-03-25T04:22:16;12.50;;;6.30;;
34767;SDS011;21755;43.608;1.236;2024-03-25T04:24:45;11.13;;;5.32;;
34767;SDS011;21755;43.608;1.236;2024-03-25T04:27:12;12.25;;;6.18;;
34767;SDS011;21755;43.608;1.236;2024-03-25T04:29:38;18.75;;;5.60;;
34767;SDS011;21755;43.608;1.236;2024-03-25T04:32:03;13.98;;;6.50;;
34767;SDS011;21755;43.608;1.236;2024-03-25T04:34:29;12.07;;;5.18;;
34767;SDS011;21755;43.608;1.236;2024-03-25T04:36:56;11.02;;;4.97;;
34767;SDS011;21755;43.608;1.236;2024-03-25T04:39:22;12.20;;;5.20;;
34767;SDS011;21755;43.608;1.236;2024-03-25T04:41:48;11.07;;;4.47;;
34767;SDS011;21755;43.608;1.236;2024-03-25T04:44:13;9.05;;;4.47;;
34767;SDS011;21755;43.608;1.236;2024-03-25T04:46:40;10.68;;;4.32;;
34767;SDS011;21755;43.608;1.236;2024-03-25T04:49:06;10.48;;;4.18;;
34767;SDS011;21755;43.608;1.236;2024-03-25T04:51:31;10.00;;;3.72;;
34767;SDS011;21755;43.608;1.236;2024-03-25T04:53:57;8.30;;;3.60;;
34767;SDS011;21755;43.608;1.236;2024-03-25T04:56:23;8.57;;;4.00;;
34767;SDS011;21755;43.608;1.236;2024-03-25T04:58:49;6.00;;;3.67;;
34767;SDS011;21755;43.608;1.236;2024-03-25T05:01:15;10.10;;;4.05;;
34767;SDS011;21755;43.608;1.236;2024-03-25T05:03:41;6.10;;;3.38;;
34767;SDS011;21755;43.608;1.236;2024-03-25T05:06:06;9.27;;;3.92;;
34767;SDS011;21755;43.608;1.236;2024-03-25T05:08:36;8.18;;;3.83;;
34767;SDS011;21755;43.608;1.236;2024-03-25T05:11:02;8.27;;;4.18;;
34767;SDS011;21755;43.608;1.236;2024-03-25T05:13:28;6.90;;;3.50;;
34767;SDS011;21755;43.608;1.236;2024-03-25T05:15:54;7.45;;;3.72;;
34767;SDS011;21755;43.608;1.236;2024-03-25T05:18:20;7.25;;;3.58;;
34767;SDS011;21755;43.608;1.236;2024-03-25T05:20:45;6.32;;;3.50;;
34767;SDS011;21755;43.608;1.236;2024-03-25T05:23:11;8.43;;;3.83;;
34767;SDS011;21755;43.608;1.236;2024-03-25T05:25:37;8.18;;;3.78;;
34767;SDS011;21755;43.608;1.236;2024-03-25T05:28:04;13.40;;;3.88;;
34767;SDS011;21755;43.608;1.236;2024-03-25T05:30:30;7.00;;;3.95;;
34767;SDS011;21755;43.608;1.236;2024-03-25T05:32:56;8.38;;;3.65;;
34767;SDS011;21755;43.608;1.236;2024-03-25T05:35:22;9.45;;;4.60;;
34767;SDS011;21755;43.608;1.236;2024-03-25T05:37:48;6.47;;;3.83;;
34767;SDS011;21755;43.608;1.236;2024-03-25T05:40:13;6.78;;;3.80;;
34767;SDS011;21755;43.608;1.236;2024-03-25T05:42:40;9.20;;;4.30;;
34767;SDS011;21755;43.608;1.236;2024-03-25T05:45:06;8.90;;;4.30;;
34767;SDS011;21755;43.608;1.236;2024-03-25T05:47:34;7.15;;;3.75;;
34767;SDS011;21755;43.608;1.236;2024-03-25T05:50:00;7.15;;;3.25;;
34767;SDS011;21755;43.608;1.236;2024-03-25T05:52:29;11.15;;;3.67;;
34767;SDS011;21755;43.608;1.236;2024-03-25T05:54:55;9.77;;;3.35;;
34767;SDS011;21755;43.608;1.236;2024-03-25T05:57:20;5.63;;;3.15;;
34767;SDS011;21755;43.608;1.236;2024-03-25T05:59:46;12.60;;;3.90;;
34767;SDS011;21755;43.608;1.236;2024-03-25T06:02:12;9.82;;;3.15;;
34767;SDS011;21755;43.608;1.236;2024-03-25T06:04:38;8.25;;;2.75;;
34767;SDS011;21755;43.608;1.236;2024-03-25T06:07:04;4.35;;;1.90;;
34767;SDS011;21755;43.608;1.236;2024-03-25T06:09:30;4.60;;;2.00;;
34767;SDS011;21755;43.608;1.236;2024-03-25T06:11:56;5.20;;;2.08;;
34767;SDS011;21755;43.608;1.236;2024-03-25T06:14:22;3.53;;;1.27;;
34767;SDS011;21755;43.608;1.236;2024-03-25T06:16:49;6.65;;;1.45;;
34767;SDS011;21755;43.608;1.236;2024-03-25T06:19:14;3.70;;;1.63;;
34767;SDS011;21755;43.608;1.236;2024-03-25T06:21:40;4.97;;;1.25;;
34767;SDS011;21755;43.608;1.236;2024-03-25T06:24:07;4.18;;;1.80;;
34767;SDS011;21755;43.608;1.236;2024-03-25T06:26:34;5.18;;;1.42;;
34767;SDS011;21755;43.608;1.236;2024-03-25T06:29:00;6.43;;;1.67;;
34767;SDS011;21755;43.608;1.236;2024-03-25T06:31:26;5.97;;;1.23;;
34767;SDS011;21755;43.608;1.236;2024-03-25T06:34:10;2.20;;;1.00;;
34767;SDS011;21755;43.608;1.236;2024-03-25T06:36:47;3.95;;;1.50;;
34767;SDS011;21755;43.608;1.236;2024-03-25T06:39:13;7.05;;;1.70;;
34767;SDS011;21755;43.608;1.236;2024-03-25T06:41:40;6.50;;;1.30;;
34767;SDS011;21755;43.608;1.236;2024-03-25T06:44:06;4.75;;;1.40;;
34767;SDS011;21755;43.608;1.236;2024-03-25T06:46:32;5.50;;;1.60;;
34767;SDS011;21755;43.608;1.236;2024-03-25T06:48:58;6.30;;;1.45;;
34767;SDS011;21755;43.608;1.236;2024-03-25T06:51:24;5.00;;;1.17;;
34767;SDS011;21755;43.608;1.236;2024-03-25T06:53:50;4.88;;;1.25;;
34767;SDS011;21755;43.608;1.236;2024-03-25T06:56:17;4.45;;;1.00;;
34767;SDS011;21755;43.608;1.236;2024-03-25T06:58:43;3.58;;;1.45;;
34767;SDS011;21755;43.608;1.236;2024-03-25T07:01:09;8.25;;;1.10;;
34767;SDS011;21755;43.608;1.236;2024-03-25T07:03:38;2.67;;;1.02;;
34767;SDS011;21755;43.608;1.236;2024-03-25T07:06:04;3.28;;;0.93;;
34767;SDS011;21755;43.608;1.236;2024-03-25T07:08:31;1.25;;;0.68;;
34767;SDS011;21755;43.608;1.236;2024-03-25T07:10:57;3.95;;;0.93;;
34767;SDS011;21755;43.608;1.236;2024-03-25T07:13:23;4.38;;;0.90;;
34767;SDS011;21755;43.608;1.236;2024-03-25T07:15:49;3.85;;;1.30;;
34767;SDS011;21755;43.608;1.236;2024-03-25T07:18:15;3.28;;;1.23;;
34767;SDS011;21755;43.608;1.236;2024-03-25T07:20:42;6.35;;;1.40;;
34767;SDS011;21755;43.608;1.236;2024-03-25T07:23:09;6.10;;;1.30;;
34767;SDS011;21755;43.608;1.236;2024-03-25T07:25:36;5.60;;;1.00;;
34767;SDS011;21755;43.608;1.236;2024-03-25T07:28:02;4.28;;;1.92;;
34767;SDS011;21755;43.608;1.236;2024-03-25T07:30:29;9.68;;;2.03;;
34767;SDS011;21755;43.608;1.236;2024-03-25T07:32:55;4.35;;;1.05;;
34767;SDS011;21755;43.608;1.236;2024-03-25T07:35:22;5.95;;;1.27;;
34767;SDS011;21755;43.608;1.236;2024-03-25T07:37:49;5.55;;;1.00;;
34767;SDS011;21755;43.608;1.236;2024-03-25T07:40:16;2.90;;;0.85;;
34767;SDS011;21755;43.608;1.236;2024-03-25T07:42:46;2.80;;;1.00;;
34767;SDS011;21755;43.608;1.236;2024-03-25T07:45:12;3.55;;;1.08;;
34767;SDS011;21755;43.608;1.236;2024-03-25T07:47:39;8.45;;;1.30;;
34767;SDS011;21755;43.608;1.236;2024-03-25T07:50:05;3.20;;;1.27;;
34767;SDS011;21755;43.608;1.236;2024-03-25T07:52:32;4.97;;;1.30;;
34767;SDS011;21755;43.608;1.236;2024-03-25T07:54:58;3.30;;;1.40;;
34767;SDS011;21755;43.608;1.236;2024-03-25T07:57:24;2.65;;;1.33;;
34767;SDS011;21755;43.608;1.236;2024-03-25T07:59:50;7.90;;;1.23;;
34767;SDS011;21755;43.608;1.236;2024-03-25T08:02:16;6.70;;;1.30;;
34767;SDS011;21755;43.608;1.236;2024-03-25T08:04:42;5.25;;;1.35;;
34767;SDS011;21755;43.608;1.236;2024-03-25T08:07:16;3.80;;;1.05;;
34767;SDS011;21755;43.608;1.236;2024-03-25T08:10:06;6.53;;;0.93;;
34767;SDS011;21755;43.608;1.236;2024-03-25T08:12:34;4.35;;;1.27;;
34767;SDS011;21755;43.608;1.236;2024-03-25T08:15:00;7.10;;;1.48;;
34767;SDS011;21755;43.608;1.236;2024-03-25T08:17:26;5.20;;;1.70;;
34767;SDS011;21755;43.608;1.236;2024-03-25T08:19:52;4.40;;;1.00;;
34767;SDS011;21755;43.608;1.236;2024-03-25T08:22:18;8.10;;;1.40;;
34767;SDS011;21755;43.608;1.236;2024-03-25T08:24:45;3.90;;;1.30;;
34767;SDS011;21755;43.608;1.236;2024-03-25T08:27:11;7.22;;;1.38;;
34767;SDS011;21755;43.608;1.236;2024-03-25T08:29:37;6.45;;;1.65;;
34767;SDS011;21755;43.608;1.236;2024-03-25T08:32:03;4.45;;;1.60;;
34767;SDS011;21755;43.608;1.236;2024-03-25T08:34:29;8.70;;;2.05;;
34767;SDS011;21755;43.608;1.236;2024-03-25T08:36:55;4.47;;;1.60;;
34767;SDS011;21755;43.608;1.236;2024-03-25T08:39:21;4.97;;;1.13;;
34767;SDS011;21755;43.608;1.236;2024-03-25T08:41:47;6.18;;;1.30;;
34767;SDS011;21755;43.608;1.236;2024-03-25T08:44:13;7.82;;;1.50;;
34767;SDS011;21755;43.608;1.236;2024-03-25T08:46:39;6.80;;;1.35;;
34767;SDS011;21755;43.608;1.236;2024-03-25T08:49:04;4.78;;;1.25;;
34767;SDS011;21755;43.608;1.236;2024-03-25T08:51:30;4.35;;;1.58;;
34767;SDS011;21755;43.608;1.236;2024-03-25T08:53:56;8.10;;;1.30;;
34767;SDS011;21755;43.608;1.236;2024-03-25T08:56:22;9.02;;;1.17;;
34767;SDS011;21755;43.608;1.236;2024-03-25T08:58:48;4.70;;;1.27;;
34767;SDS011;21755;43.608;1.236;2024-03-25T09:01:14;3.42;;;0.90;;
34767;SDS011;21755;43.608;1.236;2024-03-25T09:03:41;8.55;;;1.50;;
34767;SDS011;21755;43.608;1.236;2024-03-25T09:06:07;5.25;;;0.90;;
34767;SDS011;21755;43.608;1.236;2024-03-25T09:08:33;4.88;;;1.05;;
34767;SDS011;21755;43.608;1.236;2024-03-25T09:11:20;4.75;;;0.98;;
34767;SDS011;21755;43.608;1.236;2024-03-25T09:13:50;2.90;;;1.02;;
34767;SDS011;21755;43.608;1.236;2024-03-25T09:16:15;6.43;;;1.35;;
34767;SDS011;21755;43.608;1.236;2024-03-25T09:18:41;6.25;;;1.27;;
34767;SDS011;21755;43.608;1.236;2024-03-25T09:21:07;10.88;;;1.67;;
34767;SDS011;21755;43.608;1.236;2024-03-25T09:23:33;5.88;;;1.00;;
34767;SDS011;21755;43.608;1.236;2024-03-25T09:25:59;2.45;;;0.75;;
34767;SDS011;21755;43.608;1.236;2024-03-25T09:28:25;5.25;;;0.98;;
34767;SDS011;21755;43.608;1.236;2024-03-25T09:30:51;6.00;;;0.98;;
34767;SDS011;21755;43.608;1.236;2024-03-25T09:33:17;6.07;;;1.00;;
34767;SDS011;21755;43.608;1.236;2024-03-25T09:35:42;4.20;;;0.88;;
34767;SDS011;21755;43.608;1.236;2024-03-25T09:38:08;4.97;;;1.10;;
34767;SDS011;21755;43.608;1.236;2024-03-25T09:40:39;4.75;;;0.90;;
34767;SDS011;21755;43.608;1.236;2024-03-25T09:43:06;6.32;;;0.88;;
34767;SDS011;21755;43.608;1.236;2024-03-25T09:45:47;4.88;;;0.77;;
34767;SDS011;21755;43.608;1.236;2024-03-25T09:48:14;4.95;;;1.15;;
34767;SDS011;21755;43.608;1.236;2024-03-25T09:50:42;4.75;;;0.90;;
34767;SDS011;21755;43.608;1.236;2024-03-25T09:53:09;9.18;;;1.27;;
34767;SDS011;21755;43.608;1.236;2024-03-25T09:55:35;2.70;;;0.95;;
34767;SDS011;21755;43.608;1.236;2024-03-25T09:58:02;5.47;;;0.77;;
34767;SDS011;21755;43.608;1.236;2024-03-25T10:00:31;6.55;;;0.85;;
34767;SDS011;21755;43.608;1.236;2024-03-25T10:02:57;4.38;;;0.77;;
34767;SDS011;21755;43.608;1.236;2024-03-25T10:05:23;3.63;;;0.82;;
34767;SDS011;21755;43.608;1.236;2024-03-25T10:07:49;6.00;;;0.95;;
34767;SDS011;21755;43.608;1.236;2024-03-25T10:10:19;5.78;;;1.08;;
34767;SDS011;21755;43.608;1.236;2024-03-25T10:12:45;2.08;;;0.90;;
34767;SDS011;21755;43.608;1.236;2024-03-25T10:15:17;6.78;;;1.20;;
34767;SDS011;21755;43.608;1.236;2024-03-25T10:17:43;6.93;;;1.45;;
34767;SDS011;21755;43.608;1.236;2024-03-25T10:20:15;9.00;;;1.10;;
34767;SDS011;21755;43.608;1.236;2024-03-25T10:22:45;5.57;;;0.98;;
34767;SDS011;21755;43.608;1.236;2024-03-25T10:25:23;6.72;;;1.00;;
34767;SDS011;21755;43.608;1.236;2024-03-25T10:27:56;7.28;;;1.08;;
34767;SDS011;21755;43.608;1.236;2024-03-25T10:30:23;6.35;;;1.15;;
34767;SDS011;21755;43.608;1.236;2024-03-25T10:33:04;4.30;;;0.80;;
34767;SDS011;21755;43.608;1.236;2024-03-25T10:35:40;2.45;;;0.80;;
34767;SDS011;21755;43.608;1.236;2024-03-25T10:38:06;6.95;;;1.00;;
34767;SDS011;21755;43.608;1.236;2024-03-25T10:40:36;9.65;;;1.27;;
34767;SDS011;21755;43.608;1.236;2024-03-25T10:43:04;7.40;;;1.25;;
34767;SDS011;21755;43.608;1.236;2024-03-25T10:45:32;4.40;;;0.90;;
34767;SDS011;21755;43.608;1.236;2024-03-25T10:48:19;6.35;;;1.08;;
34767;SDS011;21755;43.608;1.236;2024-03-25T10:50:45;6.22;;;1.10;;
34767;SDS011;21755;43.608;1.236;2024-03-25T10:53:14;6.55;;;1.35;;
34767;SDS011;21755;43.608;1.236;2024-03-25T10:55:44;4.32;;;0.98;;
34767;SDS011;21755;43.608;1.236;2024-03-25T10:58:13;3.88;;;1.17;;
34767;SDS011;21755;43.608;1.236;2024-03-25T11:00:41;14.68;;;1.48;;
34767;SDS011;21755;43.608;1.236;2024-03-25T11:03:10;1.48;;;0.82;;
34767;SDS011;21755;43.608;1.236;2024-03-25T11:05:36;7.45;;;1.10;;
34767;SDS011;21755;43.608;1.236;2024-03-25T11:08:12;4.68;;;0.90;;
34767;SDS011;21755;43.608;1.236;2024-03-25T11:10:46;7.05;;;1.58;;
34767;SDS011;21755;43.608;1.236;2024-03-25T11:13:13;6.40;;;1.33;;
34767;SDS011;21755;43.608;1.236;2024-03-25T11:15:42;4.40;;;1.00;;
34767;SDS011;21755;43.608;1.236;2024-03-25T11:18:13;11.80;;;1.00;;
34767;SDS011;21755;43.608;1.236;2024-03-25T11:20:39;7.03;;;0.77;;
34767;SDS011;21755;43.608;1.236;2024-03-25T11:23:12;5.07;;;1.30;;
34767;SDS011;21755;43.608;1.236;2024-03-25T11:25:39;7.75;;;1.10;;
34767;SDS011;21755;43.608;1.236;2024-03-25T11:28:06;7.72;;;1.17;;
34767;SDS011;21755;43.608;1.236;2024-03-25T11:30:36;3.13;;;1.05;;
34767;SDS011;21755;43.608;1.236;2024-03-25T11:33:02;4.97;;;0.93;;
34767;SDS011;21755;43.608;1.236;2024-03-25T11:35:29;7.38;;;1.23;;
34767;SDS011;21755;43.608;1.236;2024-03-25T11:37:55;2.20;;;0.80;;
34767;SDS011;21755;43.608;1.236;2024-03-25T11:40:21;5.07;;;1.25;;
34767;SDS011;21755;43.608;1.236;2024-03-25T11:42:47;3.83;;;1.20;;
34767;SDS011;21755;43.608;1.236;2024-03-25T11:45:14;4.63;;;0.95;;
34767;SDS011;21755;43.608;1.236;2024-03-25T11:47:45;6.28;;;1.17;;
34767;SDS011;21755;43.608;1.236;2024-03-25T11:50:12;8.10;;;1.70;;
34767;SDS011;21755;43.608;1.236;2024-03-25T11:52:40;5.80;;;1.38;;
34767;SDS011;21755;43.608;1.236;2024-03-25T11:55:06;6.40;;;1.27;;
34767;SDS011;21755;43.608;1.236;2024-03-25T11:57:40;3.22;;;0.98;;
34767;SDS011;21755;43.608;1.236;2024-03-25T12:00:07;7.13;;;0.93;;
34767;SDS011;21755;43.608;1.236;2024-03-25T12:02:36;5.53;;;1.20;;
34767;SDS011;21755;43.608;1.236;2024-03-25T12:05:03;5.38;;;1.50;;
34767;SDS011;21755;43.608;1.236;2024-03-25T12:07:31;6.25;;;1.52;;
34767;SDS011;21755;43.608;1.236;2024-03-25T12:09:59;6.10;;;1.10;;
34767;SDS011;21755;43.608;1.236;2024-03-25T12:12:44;8.85;;;1.10;;
34767;SDS011;21755;43.608;1.236;2024-03-25T12:15:10;9.20;;;1.38;;
34767;SDS011;21755;43.608;1.236;2024-03-25T12:17:36;6.55;;;1.33;;
34767;SDS011;21755;43.608;1.236;2024-03-25T12:20:03;5.53;;;1.40;;
34767;SDS011;21755;43.608;1.236;2024-03-25T12:22:31;13.07;;;1.88;;
34767;SDS011;21755;43.608;1.236;2024-03-25T12:25:00;5.35;;;0.90;;
34767;SDS011;21755;43.608;1.236;2024-03-25T12:27:34;9.52;;;1.67;;
34767;SDS011;21755;43.608;1.236;2024-03-25T12:30:04;15.50;;;1.90;;
34767;SDS011;21755;43.608;1.236;2024-03-25T12:32:41;8.73;;;1.50;;
34767;SDS011;21755;43.608;1.236;2024-03-25T12:35:09;6.85;;;1.75;;
34767;SDS011;21755;43.608;1.236;2024-03-25T12:37:41;8.40;;;1.47;;
34767;SDS011;21755;43.608;1.236;2024-03-25T12:40:27;4.78;;;1.10;;
34767;SDS011;21755;43.608;1.236;2024-03-25T12:42:55;7.45;;;1.60;;
34767;SDS011;21755;43.608;1.236;2024-03-25T12:45:21;8.77;;;1.77;;
34767;SDS011;21755;43.608;1.236;2024-03-25T12:47:48;10.07;;;1.42;;
34767;SDS011;21755;43.608;1.236;2024-03-25T12:50:17;7.63;;;1.40;;
34767;SDS011;21755;43.608;1.236;2024-03-25T12:52:49;8.57;;;1.63;;
34767;SDS011;21755;43.608;1.236;2024-03-25T12:55:14;11.02;;;1.98;;
34767;SDS011;21755;43.608;1.236;2024-03-25T12:57:40;6.07;;;1.33;;
34767;SDS011;21755;43.608;1.236;2024-03-25T13:00:07;8.23;;;1.52;;
34767;SDS011;21755;43.608;1.236;2024-03-25T13:02:34;11.57;;;2.22;;
34767;SDS011;21755;43.608;1.236;2024-03-25T13:05:00;7.90;;;1.50;;
34767;SDS011;21755;43.608;1.236;2024-03-25T13:07:26;9.05;;;1.90;;
34767;SDS011;21755;43.608;1.236;2024-03-25T13:09:52;10.38;;;1.60;;
34767;SDS011;21755;43.608;1.236;2024-03-25T13:12:18;13.27;;;2.10;;
34767;SDS011;21755;43.608;1.236;2024-03-25T13:14:44;9.68;;;1.55;;
34767;SDS011;21755;43.608;1.236;2024-03-25T13:17:09;6.38;;;1.40;;
34767;SDS011;21755;43.608;1.236;2024-03-25T13:19:35;8.38;;;1.42;;
34767;SDS011;21755;43.608;1.236;2024-03-25T13:22:01;9.40;;;1.63;;
34767;SDS011;21755;43.608;1.236;2024-03-25T13:24:27;8.43;;;1.75;;
34767;SDS011;21755;43.608;1.236;2024-03-25T13:26:53;11.63;;;1.60;;
34767;SDS011;21755;43.608;1.236;2024-03-25T13:29:19;10.50;;;1.55;;
34767;SDS011;21755;43.608;1.236;2024-03-25T13:31:45;12.52;;;1.90;;
34767;SDS011;21755;43.608;1.236;2024-03-25T13:34:10;8.13;;;1.58;;
34767;SDS011;21755;43.608;1.236;2024-03-25T13:36:36;10.35;;;1.83;;
34767;SDS011;21755;43.608;1.236;2024-03-25T13:39:02;6.68;;;1.70;;
34767;SDS011;21755;43.608;1.236;2024-03-25T13:41:28;13.63;;;2.28;;
34767;SDS011;21755;43.608;1.236;2024-03-25T13:43:54;5.57;;;1.17;;
34767;SDS011;21755;43.608;1.236;2024-03-25T13:46:20;8.60;;;1.23;;
34767;SDS011;21755;43.608;1.236;2024-03-25T13:48:47;6.95;;;1.45;;
34767;SDS011;21755;43.608;1.236;2024-03-25T13:51:13;9.13;;;1.30;;
34767;SDS011;21755;43.608;1.236;2024-03-25T13:53:39;3.22;;;1.30;;
34767;SDS011;21755;43.608;1.236;2024-03-25T13:56:05;7.72;;;1.45;;
34767;SDS011;21755;43.608;1.236;2024-03-25T13:58:31;14.40;;;1.92;;
34767;SDS011;21755;43.608;1.236;2024-03-25T14:00:57;8.63;;;2.22;;
34767;SDS011;21755;43.608;1.236;2024-03-25T14:03:24;7.53;;;1.35;;
34767;SDS011;21755;43.608;1.236;2024-03-25T14:05:50;10.45;;;1.70;;
34767;SDS011;21755;43.608;1.236;2024-03-25T14:08:15;10.93;;;1.90;;
34767;SDS011;21755;43.608;1.236;2024-03-25T14:10:43;10.52;;;1.58;;
34767;SDS011;21755;43.608;1.236;2024-03-25T14:13:09;17.65;;;1.77;;
34767;SDS011;21755;43.608;1.236;2024-03-25T14:15:35;10.43;;;1.52;;
34767;SDS011;21755;43.608;1.236;2024-03-25T14:18:00;5.75;;;1.33;;
34767;SDS011;21755;43.608;1.236;2024-03-25T14:20:27;4.18;;;0.98;;
34767;SDS011;21755;43.608;1.236;2024-03-25T14:22:52;7.07;;;1.88;;
34767;SDS011;21755;43.608;1.236;2024-03-25T14:25:18;8.20;;;1.50;;
34767;SDS011;21755;43.608;1.236;2024-03-25T14:27:44;5.70;;;1.90;;
34767;SDS011;21755;43.608;1.236;2024-03-25T14:30:11;8.23;;;1.48;;
34767;SDS011;21755;43.608;1.236;2024-03-25T14:32:40;4.85;;;1.10;;
34767;SDS011;21755;43.608;1.236;2024-03-25T14:35:06;12.10;;;2.22;;
34767;SDS011;21755;43.608;1.236;2024-03-25T14:37:32;6.97;;;1.40;;
34767;SDS011;21755;43.608;1.236;2024-03-25T14:39:58;4.90;;;1.48;;
34767;SDS011;21755;43.608;1.236;2024-03-25T14:42:24;7.47;;;1.33;;
34767;SDS011;21755;43.608;1.236;2024-03-25T14:44:50;11.93;;;1.58;;
34767;SDS011;21755;43.608;1.236;2024-03-25T14:47:16;8.80;;;1.63;;